createdAt,value
2022-11-29T00:02:02.703Z,24.90
2022-11-29T00:04:30.332Z,24.67
2022-11-29T00:06:57.667Z,23.55
2022-11-29T00:09:24.983Z,24.70
2022-11-29T00:12:10.827Z,25.70
2022-11-29T00:14:38.296Z,23.85
2022-11-29T00:17:06.011Z,25.55
2022-11-29T00:19:35.676Z,25.05
2022-11-29T00:22:04.059Z,24.38
2022-11-29T00:24:32.491Z,25.50
2022-11-29T00:27:00.489Z,24.25
2022-11-29T00:32:13.532Z,26.67
2022-11-29T00:34:41.069Z,25.42
2022-11-29T00:37:08.867Z,24.48
2022-11-29T00:39:36.929Z,23.77
2022-11-29T00:42:05.707Z,26.27
2022-11-29T00:44:33.359Z,26.20
2022-11-29T00:47:00.859Z,23.25
2022-11-29T00:49:28.264Z,23.98
2022-11-29T00:51:55.877Z,26.27
2022-11-29T00:54:23.333Z,26.73
2022-11-29T00:56:50.745Z,23.85
2022-11-29T00:59:18.201Z,22.08
2022-11-29T01:01:45.655Z,24.55
2022-11-29T01:04:13.137Z,23.65
2022-11-29T01:06:40.782Z,22.95
2022-11-29T01:09:08.265Z,23.80
2022-11-29T01:11:35.870Z,23.42
2022-11-29T01:14:04.275Z,22.63
2022-11-29T01:16:32.804Z,24.52
2022-11-29T01:19:00.895Z,25.05
2022-11-29T01:21:28.457Z,23.48
2022-11-29T01:23:56.349Z,22.88
2022-11-29T01:26:27.636Z,28.13
2022-11-29T01:28:56.736Z,25.33
2022-11-29T01:31:27.757Z,24.05
2022-11-29T01:33:57.282Z,24.73
2022-11-29T01:36:25.317Z,22.23
2022-11-29T01:38:52.948Z,25.92
2022-11-29T01:41:23.856Z,22.75
2022-11-29T01:43:55.919Z,24.52
2022-11-29T01:46:24.340Z,25.27
2022-11-29T01:48:55.313Z,24.45
2022-11-29T01:51:23.007Z,27.05
2022-11-29T01:53:50.556Z,24.88
2022-11-29T01:56:18.144Z,21.80
2022-11-29T01:58:45.766Z,22.63
2022-11-29T02:01:14.239Z,24.88
2022-11-29T02:03:41.987Z,23.38
2022-11-29T02:06:09.643Z,22.00
2022-11-29T02:08:40.691Z,23.75
2022-11-29T02:11:36.746Z,23.38
2022-11-29T02:14:56.810Z,23.20
2022-11-29T02:17:41.913Z,23.38
2022-11-29T02:20:27.763Z,21.60
2022-11-29T02:23:04.104Z,21.83
2022-11-29T02:25:46.580Z,23.95
2022-11-29T02:28:27.247Z,21.23
2022-11-29T02:31:02.946Z,21.67
2022-11-29T02:33:39.244Z,21.25
2022-11-29T02:36:30.036Z,20.67
2022-11-29T02:39:52.296Z,20.38
2022-11-29T02:42:25.501Z,19.80
2022-11-29T02:45:19.740Z,20.50
2022-11-29T02:48:05.224Z,19.30
2022-11-29T02:50:59.724Z,22.08
2022-11-29T02:53:35.412Z,19.25
2022-11-29T02:56:40.405Z,18.23
2022-11-29T02:59:26.352Z,19.50
2022-11-29T03:02:27.254Z,18.58
2022-11-29T03:05:25.117Z,17.58
2022-11-29T03:10:57.477Z,15.90
2022-11-29T03:13:46.583Z,18.13
2022-11-29T03:16:43.647Z,15.98
2022-11-29T03:19:23.461Z,15.57
2022-11-29T03:22:18.871Z,15.40
2022-11-29T03:24:55.180Z,16.15
2022-11-29T03:27:31.050Z,17.25
2022-11-29T03:30:05.685Z,16.77
2022-11-29T03:32:45.632Z,15.25
2022-11-29T03:35:22.628Z,14.90
2022-11-29T03:38:16.849Z,14.88
2022-11-29T03:41:15.010Z,14.77
2022-11-29T03:44:03.345Z,13.38
2022-11-29T03:46:38.236Z,14.57
2022-11-29T03:49:28.638Z,13.45
2022-11-29T03:51:58.941Z,14.25
2022-11-29T03:54:35.183Z,14.27
2022-11-29T03:57:02.973Z,14.45
2022-11-29T03:59:32.983Z,13.50
2022-11-29T04:02:41.761Z,13.02
2022-11-29T04:05:29.436Z,12.88
2022-11-29T04:08:11.795Z,12.70
2022-11-29T04:11:08.307Z,12.57
2022-11-29T04:14:04.471Z,12.15
2022-11-29T04:17:02.979Z,12.25
2022-11-29T04:19:48.525Z,12.32
2022-11-29T04:22:32.714Z,13.32
2022-11-29T04:25:15.572Z,11.63
2022-11-29T04:28:09.175Z,11.93
2022-11-29T04:31:14.735Z,10.88
2022-11-29T04:34:17.966Z,11.32
2022-11-29T04:37:09.064Z,10.77
2022-11-29T04:40:01.081Z,10.45
2022-11-29T04:42:55.921Z,10.82
2022-11-29T04:46:01.376Z,10.40
2022-11-29T04:49:05.848Z,9.75
2022-11-29T04:52:04.188Z,9.90
2022-11-29T04:55:09.304Z,9.93
2022-11-29T04:58:04.272Z,10.63
2022-11-29T05:00:44.540Z,10.15
2022-11-29T05:03:20.376Z,9.73
2022-11-29T05:05:53.749Z,10.27
2022-11-29T05:08:30.613Z,10.52
2022-11-29T05:13:28.516Z,8.80
2022-11-29T05:16:04.646Z,9.00
2022-11-29T05:19:02.975Z,9.85
2022-11-29T05:21:30.399Z,9.63
2022-11-29T05:24:19.221Z,8.85
2022-11-29T05:27:33.207Z,9.88
2022-11-29T05:30:11.481Z,9.20
2022-11-29T05:32:57.815Z,10.20
2022-11-29T05:35:51.526Z,9.32
2022-11-29T05:38:56.270Z,8.70
2022-11-29T05:41:32.474Z,11.63
2022-11-29T05:44:12.089Z,10.52
2022-11-29T05:46:39.549Z,9.65
2022-11-29T05:49:21.093Z,9.85
2022-11-29T05:52:14.492Z,9.02
2022-11-29T05:54:52.340Z,7.90
2022-11-29T05:58:01.935Z,7.78
2022-11-29T06:00:40.011Z,8.13
2022-11-29T06:03:18.345Z,9.15
2022-11-29T06:05:57.495Z,7.68
2022-11-29T06:08:24.841Z,8.77
2022-11-29T06:11:00.717Z,8.07
2022-11-29T06:13:51.087Z,6.87
2022-11-29T06:16:33.994Z,7.13
2022-11-29T06:19:20.017Z,7.47
2022-11-29T06:22:02.635Z,7.18
2022-11-29T06:24:51.819Z,7.85
2022-11-29T06:28:04.853Z,7.90
2022-11-29T06:30:50.781Z,7.18
2022-11-29T06:33:28.075Z,10.82
2022-11-29T06:36:16.625Z,7.55
2022-11-29T06:38:44.253Z,7.03
2022-11-29T06:41:19.834Z,11.77
2022-11-29T06:43:47.820Z,7.30
2022-11-29T06:46:36.892Z,7.53
2022-11-29T06:49:14.281Z,7.30
2022-11-29T06:52:00.752Z,7.00
2022-11-29T06:54:34.253Z,9.93
2022-11-29T06:57:20.423Z,7.90
2022-11-29T07:00:00.053Z,7.55
2022-11-29T07:02:59.533Z,7.90
2022-11-29T07:05:35.131Z,8.02
2022-11-29T07:08:06.373Z,7.70
2022-11-29T07:10:36.814Z,8.02
2022-11-29T07:13:04.863Z,7.30
2022-11-29T07:15:32.629Z,6.80
2022-11-29T07:18:28.598Z,6.72
2022-11-29T07:21:13.473Z,8.23
2022-11-29T07:24:00.086Z,7.63
2022-11-29T07:26:27.449Z,8.10
2022-11-29T07:29:00.887Z,7.65
2022-11-29T07:31:59.388Z,7.55
2022-11-29T07:34:54.665Z,7.55
2022-11-29T07:37:44.786Z,6.88
2022-11-29T07:40:37.418Z,7.20
2022-11-29T07:43:34.894Z,7.13
2022-11-29T07:46:02.383Z,7.43
2022-11-29T07:48:29.845Z,7.53
2022-11-29T07:50:57.563Z,7.53
2022-11-29T07:53:25.156Z,7.00
2022-11-29T07:55:53.212Z,7.28
2022-11-29T07:58:21.087Z,7.25
2022-11-29T08:00:48.665Z,7.38
2022-11-29T08:03:16.259Z,6.78
2022-11-29T08:05:46.461Z,7.28
2022-11-29T08:08:15.104Z,7.57
2022-11-29T08:10:42.563Z,7.20
2022-11-29T08:13:10.066Z,6.75
2022-11-29T08:15:43.193Z,6.63
2022-11-29T08:18:10.665Z,6.50
2022-11-29T08:20:39.260Z,6.53
2022-11-29T08:23:06.805Z,8.15
2022-11-29T08:25:34.456Z,6.32
2022-11-29T08:28:03.002Z,7.78
2022-11-29T08:30:30.427Z,6.70
2022-11-29T08:32:58.368Z,6.50
2022-11-29T08:35:26.069Z,6.22
2022-11-29T08:37:54.708Z,6.30
2022-11-29T08:40:23.082Z,6.43
2022-11-29T08:42:50.684Z,6.55
2022-11-29T08:45:18.274Z,6.07
2022-11-29T08:47:45.799Z,6.20
2022-11-29T08:50:18.201Z,6.72
2022-11-29T08:53:06.539Z,6.00
2022-11-29T08:55:40.661Z,6.80
2022-11-29T08:58:13.897Z,5.90
2022-11-29T09:00:44.230Z,6.05
2022-11-29T09:03:30.269Z,5.95
2022-11-29T09:05:57.892Z,6.30
2022-11-29T09:08:25.507Z,5.45
2022-11-29T09:10:53.446Z,5.57
2022-11-29T09:13:20.892Z,6.57
2022-11-29T09:15:48.499Z,6.07
2022-11-29T09:18:16.052Z,6.28
2022-11-29T09:20:44.822Z,6.20
2022-11-29T09:23:13.237Z,5.78
2022-11-29T09:25:40.898Z,5.78
2022-11-29T09:28:08.645Z,6.20
2022-11-29T09:30:38.022Z,6.38
2022-11-29T09:33:05.634Z,5.80
2022-11-29T09:35:34.691Z,5.60
2022-11-29T09:38:02.133Z,5.95
2022-11-29T09:40:40.112Z,6.07
2022-11-29T09:43:10.514Z,8.18
2022-11-29T09:45:43.144Z,6.28
2022-11-29T09:48:26.774Z,10.52
2022-11-29T09:51:16.995Z,18.00
2022-11-29T09:54:03.152Z,21.08
2022-11-29T09:56:47.205Z,16.20
2022-11-29T09:59:33.658Z,16.58
2022-11-29T10:02:22.840Z,13.33
2022-11-29T10:04:59.155Z,14.05
2022-11-29T10:07:35.256Z,13.02
2022-11-29T10:10:04.936Z,16.05
2022-11-29T10:13:15.747Z,11.75
2022-11-29T10:15:50.457Z,14.90
2022-11-29T10:18:29.370Z,9.00
2022-11-29T10:21:03.572Z,10.85
2022-11-29T10:23:39.028Z,12.95
2022-11-29T10:26:08.132Z,11.57
2022-11-29T10:28:37.163Z,13.38
2022-11-29T10:31:17.038Z,12.93
2022-11-29T10:33:45.247Z,11.45
2022-11-29T10:36:25.888Z,13.15
2022-11-29T10:38:59.298Z,9.52
2022-11-29T10:41:27.117Z,11.00
2022-11-29T10:43:58.561Z,9.90
2022-11-29T10:46:34.252Z,7.20
2022-11-29T10:49:11.795Z,7.60
2022-11-29T10:51:39.310Z,10.32
2022-11-29T10:54:41.686Z,9.80
2022-11-29T10:57:14.911Z,7.85
2022-11-29T10:59:59.333Z,12.50
2022-11-29T11:02:27.917Z,8.52
2022-11-29T11:04:56.365Z,6.97
2022-11-29T11:07:36.096Z,9.15
2022-11-29T11:10:17.414Z,7.75
2022-11-29T11:13:01.489Z,9.95
2022-11-29T11:15:31.115Z,9.82
2022-11-29T11:18:05.013Z,9.15
2022-11-29T11:20:35.420Z,8.18
2022-11-29T11:23:07.956Z,8.13
2022-11-29T11:25:39.177Z,9.30
2022-11-29T11:28:23.145Z,8.70
2022-11-29T11:31:11.395Z,7.88
2022-11-29T11:33:41.789Z,9.07
2022-11-29T11:36:12.434Z,7.47
2022-11-29T11:39:08.989Z,7.95
2022-11-29T11:41:59.601Z,8.77
2022-11-29T11:44:58.423Z,12.77
2022-11-29T11:47:29.067Z,10.40
2022-11-29T11:50:06.852Z,8.38
2022-11-29T11:52:42.042Z,12.85
2022-11-29T11:55:21.441Z,9.07
2022-11-29T11:58:09.339Z,10.10
2022-11-29T12:01:04.409Z,13.30
2022-11-29T12:03:56.796Z,11.52
2022-11-29T12:06:29.978Z,8.85
2022-11-29T12:09:16.491Z,11.40
2022-11-29T12:11:51.366Z,9.70
2022-11-29T12:14:28.589Z,11.73
2022-11-29T12:17:05.194Z,10.80
2022-11-29T12:19:41.857Z,13.75
2022-11-29T12:22:15.368Z,18.17
2022-11-29T12:24:53.040Z,13.93
2022-11-29T12:27:20.582Z,17.00
2022-11-29T12:29:48.070Z,14.30
2022-11-29T12:32:42.835Z,14.38
2022-11-29T12:35:35.116Z,12.90
2022-11-29T12:38:08.804Z,11.60
2022-11-29T12:40:59.463Z,12.40
2022-11-29T12:43:45.340Z,12.45
2022-11-29T12:46:29.311Z,12.75
2022-11-29T12:49:02.818Z,13.65
2022-11-29T12:51:57.912Z,12.93
2022-11-29T12:54:28.212Z,12.85
2022-11-29T12:57:23.747Z,11.98
2022-11-29T13:00:17.772Z,12.60
2022-11-29T13:02:53.474Z,13.68
2022-11-29T13:05:33.944Z,10.32
2022-11-29T13:08:04.457Z,12.32
2022-11-29T13:10:35.842Z,11.65
2022-11-29T13:13:16.669Z,13.18
2022-11-29T13:15:44.106Z,12.40
2022-11-29T13:18:24.193Z,10.98
2022-11-29T13:20:56.377Z,11.68
2022-11-29T13:26:38.623Z,11.57
2022-11-29T13:29:07.757Z,10.95
2022-11-29T13:31:36.713Z,15.77
2022-11-29T13:34:13.245Z,13.55
2022-11-29T13:36:43.575Z,10.43
2022-11-29T13:39:16.716Z,11.70
2022-11-29T13:42:10.468Z,11.43
2022-11-29T13:44:51.941Z,12.07
2022-11-29T13:47:20.123Z,10.95
2022-11-29T13:50:07.433Z,14.35
2022-11-29T13:55:12.895Z,9.85
2022-11-29T13:58:15.025Z,11.43
2022-11-29T14:00:51.217Z,10.57
2022-11-29T14:03:19.095Z,10.35
2022-11-29T14:05:49.658Z,10.20
2022-11-29T14:08:25.065Z,9.35
2022-11-29T14:10:55.681Z,10.40
2022-11-29T14:13:31.267Z,10.32
2022-11-29T14:16:01.979Z,10.27
2022-11-29T14:18:38.281Z,11.85
2022-11-29T14:21:05.861Z,9.68
2022-11-29T14:23:41.372Z,10.48
2022-11-29T14:26:08.852Z,9.85
2022-11-29T14:28:39.223Z,10.02
2022-11-29T14:31:10.676Z,10.13
2022-11-29T14:33:47.235Z,10.93
2022-11-29T14:36:14.589Z,10.15
2022-11-29T14:38:55.741Z,11.00
2022-11-29T14:41:56.793Z,9.63
2022-11-29T14:44:28.253Z,9.98
2022-11-29T14:47:24.467Z,10.63
2022-11-29T14:49:54.205Z,10.23
2022-11-29T14:52:32.095Z,9.45
2022-11-29T14:55:06.107Z,10.10
2022-11-29T14:58:01.172Z,10.02
2022-11-29T15:00:34.826Z,9.82
2022-11-29T15:03:17.581Z,9.65
2022-11-29T15:05:46.683Z,9.90
2022-11-29T15:08:19.217Z,10.02
2022-11-29T15:10:54.143Z,10.65
2022-11-29T15:13:35.994Z,10.38
2022-11-29T15:16:24.666Z,10.52
2022-11-29T15:18:59.252Z,10.07
2022-11-29T15:21:29.664Z,9.50
2022-11-29T15:24:08.831Z,11.98
2022-11-29T15:26:36.407Z,10.00
2022-11-29T15:29:19.571Z,9.40
2022-11-29T15:32:04.864Z,10.88
2022-11-29T15:34:39.713Z,9.65
2022-11-29T15:37:12.736Z,10.25
2022-11-29T15:39:40.289Z,10.25
2022-11-29T15:42:12.988Z,9.70
2022-11-29T15:44:48.057Z,10.23
2022-11-29T15:47:24.540Z,9.63
2022-11-29T15:49:53.819Z,10.13
2022-11-29T15:52:27.354Z,9.80
2022-11-29T15:55:00.561Z,10.52
2022-11-29T15:57:36.149Z,10.13
2022-11-29T16:02:40.386Z,10.98
2022-11-29T16:05:37.251Z,9.93
2022-11-29T16:08:12.359Z,10.25
2022-11-29T16:10:47.389Z,10.25
2022-11-29T16:13:35.371Z,20.95
2022-11-29T16:16:17.264Z,11.27
2022-11-29T16:18:46.781Z,11.07
2022-11-29T16:21:32.733Z,10.52
2022-11-29T16:24:12.908Z,16.27
2022-11-29T16:26:44.223Z,11.57
2022-11-29T16:29:26.969Z,10.18
2022-11-29T16:31:55.022Z,13.10
2022-11-29T16:34:27.558Z,10.63
2022-11-29T16:37:07.380Z,13.77
2022-11-29T16:39:37.957Z,12.95
2022-11-29T16:42:25.937Z,11.40
2022-11-29T16:44:56.573Z,11.48
2022-11-29T16:47:26.467Z,15.07
2022-11-29T16:50:03.233Z,12.65
2022-11-29T16:52:32.995Z,12.00
2022-11-29T16:55:00.789Z,12.65
2022-11-29T16:57:29.347Z,10.98
2022-11-29T16:59:56.763Z,11.77
2022-11-29T17:02:24.293Z,12.75
2022-11-29T17:04:51.957Z,28.80
2022-11-29T17:07:39.434Z,12.73
2022-11-29T17:10:11.902Z,14.05
2022-11-29T17:12:42.237Z,11.73
2022-11-29T17:15:14.024Z,11.48
2022-11-29T17:17:43.303Z,11.27
2022-11-29T17:20:12.728Z,11.02
2022-11-29T17:22:41.358Z,11.88
2022-11-29T17:25:09.770Z,10.73
2022-11-29T17:27:37.839Z,11.60
2022-11-29T17:30:06.703Z,10.60
2022-11-29T17:32:35.858Z,14.25
2022-11-29T17:35:03.765Z,12.25
2022-11-29T17:37:31.866Z,15.30
2022-11-29T17:39:59.576Z,16.05
2022-11-29T17:42:27.130Z,14.02
2022-11-29T17:44:54.569Z,13.35
2022-11-29T17:47:22.099Z,11.32
2022-11-29T17:49:49.525Z,13.13
2022-11-29T17:52:16.979Z,13.00
2022-11-29T17:54:44.399Z,14.10
2022-11-29T17:57:11.985Z,13.98
2022-11-29T17:59:39.490Z,14.52
2022-11-29T18:02:07.082Z,13.07
2022-11-29T18:04:34.513Z,12.25
2022-11-29T18:07:01.923Z,10.82
2022-11-29T18:09:29.588Z,11.52
2022-11-29T18:11:57.038Z,11.82
2022-11-29T18:14:28.078Z,15.20
2022-11-29T18:16:55.751Z,12.18
2022-11-29T18:19:23.816Z,11.70
2022-11-29T18:21:51.756Z,15.30
2022-11-29T18:24:19.771Z,11.38
2022-11-29T18:26:47.393Z,16.13
2022-11-29T18:29:15.208Z,15.98
2022-11-29T18:31:44.592Z,17.05
2022-11-29T18:34:13.789Z,12.23
2022-11-29T18:36:47.296Z,15.55
2022-11-29T18:39:17.628Z,15.02
2022-11-29T18:41:47.734Z,13.20
2022-11-29T18:44:17.550Z,14.68
2022-11-29T18:46:46.809Z,17.65
2022-11-29T18:49:16.503Z,10.90
2022-11-29T18:51:45.941Z,10.85
2022-11-29T18:54:16.629Z,11.80
2022-11-29T18:56:45.587Z,11.95
2022-11-29T18:59:17.040Z,11.05
2022-11-29T19:01:47.649Z,23.02
2022-11-29T19:04:20.588Z,22.55
2022-11-29T19:06:48.441Z,17.92
2022-11-29T19:09:20.996Z,15.95
2022-11-29T19:11:51.667Z,14.68
2022-11-29T19:14:21.018Z,21.80
2022-11-29T19:16:50.167Z,15.63
2022-11-29T19:19:19.124Z,23.10
2022-11-29T19:21:46.917Z,12.07
2022-11-29T19:24:15.763Z,19.17
2022-11-29T19:26:45.779Z,17.48
2022-11-29T19:29:14.365Z,20.00
2022-11-29T19:31:42.713Z,15.13
2022-11-29T19:34:10.943Z,17.35
2022-11-29T19:36:43.141Z,15.15
2022-11-29T19:39:13.398Z,16.95
2022-11-29T19:41:43.912Z,16.40
2022-11-29T19:44:11.867Z,15.68
2022-11-29T19:46:45.986Z,15.45
2022-11-29T19:49:13.616Z,13.27
2022-11-29T19:51:41.442Z,14.68
2022-11-29T19:54:10.278Z,15.45
2022-11-29T19:56:38.915Z,17.48
2022-11-29T19:59:07.611Z,13.18
2022-11-29T20:01:40.784Z,14.07
2022-11-29T20:04:10.890Z,19.40
2022-11-29T20:06:39.223Z,16.25
2022-11-29T20:09:07.160Z,11.73
2022-11-29T20:11:35.038Z,16.33
2022-11-29T20:14:04.272Z,14.00
2022-11-29T20:16:32.435Z,12.68
2022-11-29T20:18:59.987Z,13.18
2022-11-29T20:21:32.706Z,13.65
2022-11-29T20:24:03.630Z,11.57
2022-11-29T20:26:33.489Z,13.90
2022-11-29T20:29:02.190Z,14.05
2022-11-29T20:31:30.224Z,15.70
2022-11-29T20:33:57.970Z,12.30
2022-11-29T20:37:05.781Z,11.73
2022-11-29T20:39:58.276Z,12.77
2022-11-29T20:42:56.868Z,10.88
2022-11-29T20:45:25.517Z,13.48
2022-11-29T20:47:58.679Z,12.15
2022-11-29T20:50:28.940Z,11.55
2022-11-29T20:52:59.619Z,12.10
2022-11-29T20:55:27.136Z,12.93
2022-11-29T20:57:55.837Z,12.65
2022-11-29T21:00:23.886Z,11.88
2022-11-29T21:02:51.602Z,11.52
2022-11-29T21:05:19.592Z,13.23
2022-11-29T21:07:47.357Z,11.90
2022-11-29T21:10:15.566Z,11.15
2022-11-29T21:12:45.834Z,14.63
2022-11-29T21:15:14.995Z,12.43
2022-11-29T21:17:43.348Z,11.40
2022-11-29T21:20:20.891Z,11.93
2022-11-29T21:23:08.836Z,11.27
2022-11-29T21:25:58.260Z,10.93
2022-11-29T21:28:34.393Z,11.13
2022-11-29T21:31:02.208Z,11.98
2022-11-29T21:33:29.951Z,10.35
2022-11-29T21:35:58.278Z,10.70
2022-11-29T21:38:27.087Z,10.48
2022-11-29T21:40:54.681Z,11.40
2022-11-29T21:43:28.742Z,10.10
2022-11-29T21:48:37.983Z,12.65
2022-11-29T21:51:07.229Z,11.57
2022-11-29T21:53:36.816Z,11.48
2022-11-29T21:56:06.975Z,12.38
2022-11-29T21:58:36.240Z,11.52
2022-11-29T22:01:12.458Z,14.75
2022-11-29T22:03:40.835Z,11.63
2022-11-29T22:06:10.902Z,12.00
2022-11-29T22:08:40.228Z,10.80
2022-11-29T22:11:10.740Z,10.65
2022-11-29T22:13:59.939Z,13.60
2022-11-29T22:16:28.513Z,12.73
2022-11-29T22:18:56.010Z,12.05
2022-11-29T22:21:24.543Z,11.77
2022-11-29T22:23:52.814Z,12.25
2022-11-29T22:26:22.028Z,13.65
2022-11-29T22:28:49.536Z,12.70
2022-11-29T22:31:17.125Z,12.85
2022-11-29T22:33:44.549Z,13.02
2022-11-29T22:36:13.413Z,13.10
2022-11-29T22:38:40.901Z,12.77
2022-11-29T22:41:11.125Z,13.50
2022-11-29T22:43:40.449Z,12.20
2022-11-29T22:46:10.764Z,13.48
2022-11-29T22:48:39.546Z,13.82
2022-11-29T22:51:11.661Z,14.48
2022-11-29T22:53:41.893Z,13.13
2022-11-29T22:56:10.959Z,13.68
2022-11-29T22:58:38.822Z,12.50
2022-11-29T23:01:09.549Z,12.02
2022-11-29T23:03:39.150Z,13.93
2022-11-29T23:06:11.717Z,12.45
2022-11-29T23:08:40.566Z,14.60
2022-11-29T23:11:11.127Z,14.05
2022-11-29T23:13:41.070Z,16.48
2022-11-29T23:16:11.558Z,15.45
2022-11-29T23:18:40.054Z,14.52
2022-11-29T23:21:10.469Z,12.10
2022-11-29T23:23:38.446Z,14.25
2022-11-29T23:26:08.179Z,14.40
2022-11-29T23:28:36.171Z,14.52
2022-11-29T23:31:03.662Z,14.02
2022-11-29T23:33:31.061Z,14.40
2022-11-29T23:36:05.029Z,15.00
2022-11-29T23:38:33.551Z,13.27
2022-11-29T23:41:01.192Z,13.40
2022-11-29T23:43:30.269Z,14.02
2022-11-29T23:45:58.322Z,13.45
2022-11-29T23:48:26.186Z,13.10
2022-11-29T23:50:53.912Z,15.10
2022-11-29T23:53:21.471Z,14.00
2022-11-29T23:56:00.771Z,15.90
2022-11-29T23:58:29.745Z,13.07
